createdAt,value
2018-12-16T00:00:03.219Z,35.00
2018-12-16T00:02:30.655Z,34.17
2018-12-16T00:04:58.120Z,34.23
2018-12-16T00:07:25.553Z,33.97
2018-12-16T00:09:52.954Z,33.33
2018-12-16T00:12:20.386Z,33.37
2018-12-16T00:14:47.805Z,32.73
2018-12-16T00:17:15.250Z,34.10
2018-12-16T00:19:42.756Z,32.57
2018-12-16T00:22:10.177Z,34.47
2018-12-16T00:24:37.582Z,33.40
2018-12-16T00:27:10.798Z,32.43
2018-12-16T00:29:38.215Z,35.43
2018-12-16T00:32:05.665Z,33.23
2018-12-16T00:34:33.067Z,33.67
2018-12-16T00:37:00.480Z,34.57
2018-12-16T00:39:27.932Z,33.20
2018-12-16T00:41:55.362Z,34.60
2018-12-16T00:44:22.796Z,33.40
2018-12-16T00:46:50.212Z,34.87
2018-12-16T00:49:17.630Z,34.67
2018-12-16T00:51:45.057Z,35.80
2018-12-16T00:54:12.498Z,33.13
2018-12-16T00:56:39.961Z,35.07
2018-12-16T00:59:07.393Z,33.13
2018-12-16T01:01:34.825Z,35.13
2018-12-16T01:04:02.275Z,36.87
2018-12-16T01:06:29.687Z,35.43
2018-12-16T01:08:57.117Z,34.40
2018-12-16T01:11:24.560Z,35.10
2018-12-16T01:13:51.980Z,35.70
2018-12-16T01:16:19.408Z,36.70
2018-12-16T01:18:46.804Z,34.50
2018-12-16T01:21:14.235Z,37.03
2018-12-16T01:23:41.651Z,34.20
2018-12-16T01:26:09.075Z,35.87
2018-12-16T01:28:36.505Z,36.17
2018-12-16T01:31:03.969Z,34.10
2018-12-16T01:33:31.372Z,34.23
2018-12-16T01:35:58.799Z,32.50
2018-12-16T01:38:26.256Z,32.47
2018-12-16T01:40:53.667Z,34.17
2018-12-16T01:43:21.081Z,32.80
2018-12-16T01:45:48.524Z,32.87
2018-12-16T01:48:15.930Z,32.33
2018-12-16T01:50:43.366Z,32.47
2018-12-16T01:53:10.806Z,33.57
2018-12-16T01:55:38.212Z,30.97
2018-12-16T01:58:05.646Z,31.70
2018-12-16T02:00:33.076Z,35.53
2018-12-16T02:03:00.507Z,33.17
2018-12-16T02:05:27.926Z,32.57
2018-12-16T02:07:55.356Z,32.67
2018-12-16T02:10:22.845Z,32.97
2018-12-16T02:12:50.259Z,34.63
2018-12-16T02:15:17.677Z,32.27
2018-12-16T02:17:45.113Z,32.67
2018-12-16T02:20:12.555Z,33.33
2018-12-16T02:22:39.980Z,33.30
2018-12-16T02:25:07.421Z,30.93
2018-12-16T02:27:34.836Z,31.43
2018-12-16T02:30:02.261Z,32.00
2018-12-16T02:32:29.679Z,30.10
2018-12-16T02:35:16.721Z,31.97
2018-12-16T02:37:44.159Z,30.23
2018-12-16T02:40:11.572Z,34.63
2018-12-16T02:42:39.021Z,32.53
2018-12-16T02:45:06.439Z,32.77
2018-12-16T02:47:33.877Z,31.63
2018-12-16T02:50:01.316Z,32.23
2018-12-16T02:52:28.743Z,33.13
2018-12-16T02:54:56.277Z,32.23
2018-12-16T02:57:23.695Z,36.10
2018-12-16T02:59:51.130Z,29.90
2018-12-16T03:02:18.537Z,29.53
2018-12-16T03:04:45.962Z,30.83
2018-12-16T03:07:13.394Z,28.67
2018-12-16T03:09:40.827Z,30.87
2018-12-16T03:12:08.235Z,29.87
2018-12-16T03:14:38.383Z,29.37
2018-12-16T03:17:12.307Z,27.50
2018-12-16T03:19:35.665Z,28.73
2018-12-16T03:22:03.071Z,27.43
2018-12-16T03:24:30.527Z,26.43
2018-12-16T03:27:06.602Z,27.90
2018-12-16T03:29:42.254Z,28.57
2018-12-16T03:32:12.661Z,29.33
2018-12-16T03:34:40.140Z,27.10
2018-12-16T03:37:07.577Z,28.33
2018-12-16T03:39:35.020Z,27.83
2018-12-16T03:42:02.501Z,27.30
2018-12-16T03:44:29.939Z,27.17
2018-12-16T03:47:03.268Z,26.93
2018-12-16T03:49:57.609Z,27.50
2018-12-16T03:52:05.145Z,26.70
2018-12-16T03:54:32.549Z,26.80
2018-12-16T03:56:59.994Z,26.30
2018-12-16T03:59:27.421Z,23.83
2018-12-16T04:01:54.876Z,25.97
2018-12-16T04:04:22.289Z,24.63
2018-12-16T04:06:49.720Z,26.13
2018-12-16T04:09:17.139Z,25.67
2018-12-16T04:11:44.558Z,25.13
2018-12-16T04:14:11.964Z,24.47
2018-12-16T04:16:39.399Z,25.00
2018-12-16T04:19:06.825Z,25.10
2018-12-16T04:21:34.231Z,25.23
2018-12-16T04:24:01.661Z,25.23
2018-12-16T04:26:29.068Z,24.97
2018-12-16T04:28:56.512Z,26.90
2018-12-16T04:31:23.930Z,24.60
2018-12-16T04:33:51.358Z,24.20
2018-12-16T04:36:18.768Z,24.63
2018-12-16T04:38:46.189Z,23.67
2018-12-16T04:41:13.594Z,24.90
2018-12-16T04:43:41.055Z,25.37
2018-12-16T04:46:08.474Z,25.53
2018-12-16T04:48:35.927Z,24.67
2018-12-16T04:51:03.339Z,23.10
2018-12-16T04:53:35.952Z,24.37
2018-12-16T04:55:58.185Z,25.47
2018-12-16T04:58:25.589Z,23.83
2018-12-16T05:00:53.017Z,24.43
2018-12-16T05:03:20.460Z,26.27
2018-12-16T05:05:47.883Z,25.23
2018-12-16T05:08:15.342Z,24.10
2018-12-16T05:10:42.783Z,24.77
2018-12-16T05:13:10.190Z,22.83
2018-12-16T05:15:37.621Z,24.40
2018-12-16T05:18:08.001Z,22.00
2018-12-16T05:20:35.410Z,24.03
2018-12-16T05:23:02.876Z,24.03
2018-12-16T05:25:30.315Z,22.43
2018-12-16T05:27:57.723Z,22.80
2018-12-16T05:30:25.145Z,22.73
2018-12-16T05:32:52.567Z,23.50
2018-12-16T05:35:31.833Z,20.73
2018-12-16T05:37:59.271Z,22.57
2018-12-16T05:40:33.136Z,22.97
2018-12-16T05:43:03.298Z,22.00
2018-12-16T05:45:30.738Z,22.03
2018-12-16T05:47:58.149Z,21.87
2018-12-16T05:50:25.568Z,22.17
2018-12-16T05:52:53.005Z,20.93
2018-12-16T05:55:20.410Z,22.47
2018-12-16T05:57:47.816Z,21.23
2018-12-16T06:00:15.265Z,21.63
2018-12-16T06:02:42.718Z,21.73
2018-12-16T06:05:10.132Z,20.63
2018-12-16T06:07:37.569Z,20.57
2018-12-16T06:10:05.021Z,20.47
2018-12-16T06:12:32.449Z,22.40
2018-12-16T06:14:59.857Z,21.67
2018-12-16T06:17:27.295Z,21.13
2018-12-16T06:19:54.731Z,21.23
2018-12-16T06:22:22.159Z,22.63
2018-12-16T06:24:49.580Z,23.10
2018-12-16T06:27:17.044Z,22.63
2018-12-16T06:30:04.098Z,23.63
2018-12-16T06:32:31.542Z,23.50
2018-12-16T06:34:59.097Z,22.47
2018-12-16T06:37:26.573Z,22.30
2018-12-16T06:39:53.985Z,22.80
2018-12-16T06:42:21.442Z,24.00
2018-12-16T06:44:48.854Z,24.53
2018-12-16T06:47:16.303Z,25.20
2018-12-16T06:49:43.725Z,24.57
2018-12-16T06:52:11.155Z,25.20
2018-12-16T06:54:38.601Z,24.20
2018-12-16T06:57:06.017Z,26.13
2018-12-16T06:59:33.464Z,23.23
2018-12-16T07:02:00.876Z,25.40
2018-12-16T07:04:28.313Z,25.23
2018-12-16T07:06:55.734Z,24.90
2018-12-16T07:09:23.204Z,24.80
2018-12-16T07:11:50.632Z,24.03
2018-12-16T07:14:18.085Z,25.63
2018-12-16T07:16:45.533Z,24.97
2018-12-16T07:19:12.962Z,23.60
2018-12-16T07:21:40.434Z,25.73
2018-12-16T07:24:09.331Z,25.50
2018-12-16T07:26:35.316Z,24.13
2018-12-16T07:29:02.761Z,24.67
2018-12-16T07:31:30.181Z,26.43
2018-12-16T07:33:57.613Z,25.60
2018-12-16T07:36:25.069Z,26.73
2018-12-16T07:38:52.464Z,24.63
2018-12-16T07:41:19.965Z,25.87
2018-12-16T07:43:47.413Z,25.93
2018-12-16T07:46:14.825Z,24.87
2018-12-16T07:48:42.263Z,24.50
2018-12-16T07:51:09.715Z,23.63
2018-12-16T07:53:37.146Z,24.87
2018-12-16T07:56:04.620Z,23.07
2018-12-16T07:58:32.044Z,22.47
2018-12-16T08:00:59.477Z,22.77
2018-12-16T08:03:26.936Z,22.57
2018-12-16T08:05:54.453Z,24.27
2018-12-16T08:08:21.953Z,22.73
2018-12-16T08:10:49.385Z,23.40
2018-12-16T08:13:16.943Z,25.53
2018-12-16T08:15:44.371Z,22.43
2018-12-16T08:18:11.811Z,22.10
2018-12-16T08:20:39.238Z,24.40
2018-12-16T08:23:06.680Z,25.50
2018-12-16T08:25:34.119Z,22.27
2018-12-16T08:28:01.555Z,22.47
2018-12-16T08:30:28.988Z,21.93
2018-12-16T08:32:56.438Z,23.70
2018-12-16T08:35:23.878Z,21.77
2018-12-16T08:37:51.321Z,22.90
2018-12-16T08:40:18.781Z,19.97
2018-12-16T08:42:46.216Z,20.30
2018-12-16T08:45:13.679Z,18.70
2018-12-16T08:47:41.105Z,20.77
2018-12-16T08:50:08.578Z,19.87
2018-12-16T08:52:35.981Z,19.50
2018-12-16T08:55:03.393Z,18.60
2018-12-16T08:57:30.853Z,19.47
2018-12-16T08:59:58.308Z,18.87
2018-12-16T09:02:25.725Z,18.77
2018-12-16T09:04:53.163Z,19.63
2018-12-16T09:07:20.611Z,19.43
2018-12-16T09:09:48.044Z,18.80
2018-12-16T09:12:15.486Z,19.03
2018-12-16T09:14:42.898Z,17.30
2018-12-16T09:17:10.340Z,17.90
2018-12-16T09:19:37.775Z,18.47
2018-12-16T09:22:05.191Z,18.03
2018-12-16T09:24:37.133Z,17.47
2018-12-16T09:27:00.055Z,18.40
2018-12-16T09:29:27.491Z,17.57
2018-12-16T09:31:54.933Z,16.30
2018-12-16T09:34:22.365Z,16.77
2018-12-16T09:36:49.802Z,14.93
2018-12-16T09:39:17.228Z,17.17
2018-12-16T09:41:44.678Z,16.27
2018-12-16T09:44:12.102Z,15.83
2018-12-16T09:46:39.523Z,14.80
2018-12-16T09:49:06.996Z,15.83
2018-12-16T09:51:34.455Z,14.80
2018-12-16T09:54:01.855Z,15.80
2018-12-16T09:56:29.308Z,15.47
2018-12-16T09:58:56.749Z,15.30
2018-12-16T10:01:24.194Z,15.60
2018-12-16T10:03:51.615Z,14.83
2018-12-16T10:06:19.042Z,16.47
2018-12-16T10:08:46.483Z,14.87
2018-12-16T10:11:13.907Z,15.27
2018-12-16T10:13:41.396Z,14.80
2018-12-16T10:16:08.812Z,15.40
2018-12-16T10:18:36.252Z,16.27
2018-12-16T10:21:03.716Z,15.30
2018-12-16T10:23:31.128Z,14.63
2018-12-16T10:25:58.552Z,15.40
2018-12-16T10:28:26.030Z,15.27
2018-12-16T10:30:53.439Z,14.17
2018-12-16T10:33:20.875Z,13.77
2018-12-16T10:35:48.309Z,15.20
2018-12-16T10:38:15.753Z,14.37
2018-12-16T10:40:43.180Z,15.43
2018-12-16T10:43:10.652Z,14.53
2018-12-16T10:45:38.067Z,14.93
2018-12-16T10:48:05.513Z,14.00
2018-12-16T10:50:32.943Z,13.03
2018-12-16T10:53:00.418Z,14.77
2018-12-16T10:55:27.862Z,14.30
2018-12-16T10:57:55.367Z,17.97
2018-12-16T11:00:40.798Z,17.37
2018-12-16T11:03:08.181Z,14.47
2018-12-16T11:05:35.610Z,13.60
2018-12-16T11:08:03.037Z,14.97
2018-12-16T11:10:30.483Z,14.13
2018-12-16T11:12:57.906Z,15.17
2018-12-16T11:15:25.346Z,15.70
2018-12-16T11:17:52.811Z,15.17
2018-12-16T11:20:20.289Z,13.53
2018-12-16T11:22:47.749Z,14.27
2018-12-16T11:25:15.190Z,15.93
2018-12-16T11:27:42.618Z,14.83
2018-12-16T11:30:10.068Z,15.43
2018-12-16T11:32:37.506Z,16.27
2018-12-16T11:35:05.953Z,16.33
2018-12-16T11:37:33.387Z,18.23
2018-12-16T11:40:00.862Z,17.67
2018-12-16T11:42:28.313Z,17.23
2018-12-16T11:44:55.756Z,18.00
2018-12-16T11:47:23.202Z,20.07
2018-12-16T11:49:50.611Z,18.97
2018-12-16T11:52:18.021Z,18.30
2018-12-16T11:54:45.459Z,18.77
2018-12-16T11:57:12.885Z,20.40
2018-12-16T11:59:40.322Z,19.47
2018-12-16T12:02:07.735Z,17.57
2018-12-16T12:04:35.193Z,19.47
2018-12-16T12:07:02.663Z,18.43
2018-12-16T12:09:30.087Z,18.30
2018-12-16T12:11:57.528Z,19.63
2018-12-16T12:14:24.963Z,20.50
2018-12-16T12:16:52.406Z,20.47
2018-12-16T12:19:19.837Z,17.97
2018-12-16T12:21:47.284Z,19.33
2018-12-16T12:24:14.707Z,19.83
2018-12-16T12:26:42.149Z,18.87
2018-12-16T12:29:09.592Z,19.47
2018-12-16T12:31:37.043Z,18.10
2018-12-16T12:34:04.467Z,17.60
2018-12-16T12:36:31.924Z,16.57
2018-12-16T12:38:59.337Z,18.30
2018-12-16T12:41:26.776Z,17.87
2018-12-16T12:43:54.213Z,16.90
2018-12-16T12:46:21.649Z,15.87
2018-12-16T12:48:49.054Z,15.20
2018-12-16T12:51:17.894Z,17.53
2018-12-16T12:53:45.340Z,15.43
2018-12-16T12:56:12.772Z,16.03
2018-12-16T12:58:40.230Z,16.60
2018-12-16T13:01:07.646Z,16.23
2018-12-16T13:03:35.112Z,16.27
2018-12-16T13:06:02.529Z,18.40
2018-12-16T13:08:30.007Z,18.63
2018-12-16T13:10:57.482Z,17.13
2018-12-16T13:13:24.922Z,17.33
2018-12-16T13:15:52.367Z,16.53
2018-12-16T13:18:19.802Z,19.03
2018-12-16T13:20:47.253Z,16.63
2018-12-16T13:23:14.663Z,15.93
2018-12-16T13:26:02.958Z,16.73
2018-12-16T13:28:30.417Z,17.00
2018-12-16T13:30:57.843Z,20.20
2018-12-16T13:33:25.259Z,18.10
2018-12-16T13:35:52.748Z,18.53
2018-12-16T13:38:20.183Z,18.37
2018-12-16T13:40:47.724Z,20.07
2018-12-16T13:43:15.100Z,17.87
2018-12-16T13:45:42.565Z,19.23
2018-12-16T13:48:09.987Z,18.87
2018-12-16T13:50:37.457Z,17.70
2018-12-16T13:53:04.851Z,18.90
2018-12-16T13:55:32.338Z,18.37
2018-12-16T13:57:59.756Z,18.83
2018-12-16T14:00:27.211Z,19.53
2018-12-16T14:02:54.659Z,17.87
2018-12-16T14:05:22.126Z,17.47
2018-12-16T14:07:49.541Z,16.87
2018-12-16T14:10:17.000Z,18.33
2018-12-16T14:12:44.419Z,16.93
2018-12-16T14:15:11.857Z,18.63
2018-12-16T14:17:39.319Z,17.60
2018-12-16T14:20:06.736Z,16.90
2018-12-16T14:22:34.220Z,17.33
2018-12-16T14:25:01.632Z,17.10
2018-12-16T14:27:29.090Z,17.87
2018-12-16T14:29:56.519Z,16.60
2018-12-16T14:32:23.959Z,17.67
2018-12-16T14:34:51.389Z,16.70
2018-12-16T14:37:18.839Z,17.13
2018-12-16T14:39:46.248Z,15.27
2018-12-16T14:42:13.704Z,15.97
2018-12-16T14:44:41.162Z,15.10
2018-12-16T14:47:08.615Z,14.57
2018-12-16T14:49:36.037Z,14.83
2018-12-16T14:52:03.496Z,14.63
2018-12-16T14:54:30.971Z,15.53
2018-12-16T14:56:58.407Z,15.10
2018-12-16T14:59:25.848Z,14.30
2018-12-16T15:01:53.281Z,14.00
2018-12-16T15:04:20.707Z,13.87
2018-12-16T15:06:48.179Z,14.03
2018-12-16T15:09:15.604Z,12.33
2018-12-16T15:11:43.045Z,14.93
2018-12-16T15:14:10.502Z,14.73
2018-12-16T15:16:37.919Z,14.43
2018-12-16T15:19:05.401Z,13.07
2018-12-16T15:21:32.846Z,13.90
2018-12-16T15:24:00.271Z,13.97
2018-12-16T15:26:27.775Z,12.87
2018-12-16T15:28:55.165Z,12.90
2018-12-16T15:31:22.623Z,14.33
2018-12-16T15:33:50.081Z,14.13
2018-12-16T15:36:17.538Z,12.73
2018-12-16T15:38:45.012Z,14.50
2018-12-16T15:41:12.435Z,14.30
2018-12-16T15:43:39.887Z,13.33
2018-12-16T15:46:07.340Z,13.27
2018-12-16T15:48:34.833Z,13.63
2018-12-16T15:51:02.287Z,14.07
2018-12-16T15:53:29.735Z,15.23
2018-12-16T15:55:57.163Z,16.23
2018-12-16T15:58:24.613Z,17.53
2018-12-16T16:00:52.063Z,17.03
2018-12-16T16:03:19.507Z,18.00
2018-12-16T16:05:46.949Z,17.70
2018-12-16T16:08:16.628Z,17.90
2018-12-16T16:10:41.801Z,20.87
2018-12-16T16:13:09.237Z,18.43
2018-12-16T16:15:36.694Z,19.87
2018-12-16T16:18:04.120Z,19.50
2018-12-16T16:20:31.555Z,17.67
2018-12-16T16:22:58.980Z,20.33
2018-12-16T16:25:26.412Z,18.40
2018-12-16T16:27:53.850Z,17.27
2018-12-16T16:30:21.311Z,16.23
2018-12-16T16:32:48.726Z,16.53
2018-12-16T16:35:16.190Z,15.83
2018-12-16T16:37:43.615Z,15.17
2018-12-16T16:40:11.091Z,14.93
2018-12-16T16:42:38.514Z,15.97
2018-12-16T16:45:05.982Z,16.53
2018-12-16T16:47:33.436Z,15.63
2018-12-16T16:50:00.900Z,16.63
2018-12-16T16:52:28.325Z,17.37
2018-12-16T16:54:55.763Z,16.80
2018-12-16T16:57:23.205Z,15.97
2018-12-16T16:59:50.663Z,17.77
2018-12-16T17:02:18.155Z,19.07
2018-12-16T17:04:45.592Z,25.20
2018-12-16T17:07:13.013Z,23.63
2018-12-16T17:09:40.451Z,23.67
2018-12-16T17:12:07.887Z,18.80
2018-12-16T17:14:35.355Z,19.57
2018-12-16T17:17:02.791Z,17.80
2018-12-16T17:19:30.253Z,18.23
2018-12-16T17:21:58.402Z,16.43
2018-12-16T17:24:25.178Z,18.43
2018-12-16T17:26:52.637Z,18.87
2018-12-16T17:29:20.039Z,19.60
2018-12-16T17:31:47.486Z,20.47
2018-12-16T17:34:14.956Z,20.60
2018-12-16T17:36:42.401Z,22.80
2018-12-16T17:39:09.826Z,23.43
2018-12-16T17:41:37.323Z,26.83
2018-12-16T17:44:04.766Z,29.60
2018-12-16T17:46:32.228Z,29.53
2018-12-16T17:48:59.670Z,27.60
2018-12-16T17:51:27.093Z,29.03
2018-12-16T17:53:54.553Z,29.27
2018-12-16T17:56:21.998Z,29.80
2018-12-16T17:58:49.458Z,31.30
2018-12-16T18:01:16.900Z,29.70
2018-12-16T18:03:44.342Z,29.40
2018-12-16T18:06:11.781Z,28.33
2018-12-16T18:08:39.234Z,29.60
2018-12-16T18:11:06.680Z,26.60
2018-12-16T18:13:34.094Z,27.77
2018-12-16T18:16:01.543Z,25.83
2018-12-16T18:18:29.015Z,28.63
2018-12-16T18:20:56.466Z,26.90
2018-12-16T18:23:29.582Z,24.50
2018-12-16T18:25:51.358Z,26.37
2018-12-16T18:28:18.824Z,25.70
2018-12-16T18:30:46.328Z,25.63
2018-12-16T18:33:13.843Z,27.63
2018-12-16T18:35:41.352Z,27.07
2018-12-16T18:38:08.778Z,28.20
2018-12-16T18:40:36.253Z,26.37
2018-12-16T18:43:03.696Z,26.03
2018-12-16T18:45:31.192Z,26.73
2018-12-16T18:47:58.622Z,20.93
2018-12-16T18:50:26.073Z,21.57
2018-12-16T18:52:53.528Z,23.37
2018-12-16T18:55:20.956Z,22.50
2018-12-16T18:57:48.426Z,22.57
2018-12-16T19:00:15.922Z,23.20
2018-12-16T19:02:43.342Z,22.20
2018-12-16T19:05:10.804Z,21.70
2018-12-16T19:07:38.212Z,19.10
2018-12-16T19:10:05.665Z,19.07
2018-12-16T19:12:33.136Z,17.90
2018-12-16T19:15:00.635Z,17.43
2018-12-16T19:17:28.464Z,19.63
2018-12-16T19:19:55.907Z,19.87
2018-12-16T19:22:23.320Z,19.53
2018-12-16T19:24:50.815Z,20.90
2018-12-16T19:27:18.293Z,21.57
2018-12-16T19:29:45.786Z,20.70
2018-12-16T19:32:13.225Z,21.37
2018-12-16T19:34:40.645Z,22.43
2018-12-16T19:37:08.115Z,18.93
2018-12-16T19:39:35.557Z,19.83
2018-12-16T19:42:03.009Z,18.90
2018-12-16T19:44:30.484Z,20.90
2018-12-16T19:46:57.986Z,19.67
2018-12-16T19:49:25.422Z,18.13
2018-12-16T19:51:52.867Z,19.17
2018-12-16T19:54:20.310Z,17.43
2018-12-16T19:56:47.773Z,18.77
2018-12-16T19:59:15.199Z,17.23
2018-12-16T20:01:42.673Z,17.53
2018-12-16T20:04:19.112Z,16.07
2018-12-16T20:06:46.590Z,15.10
2018-12-16T20:09:13.990Z,16.40
2018-12-16T20:11:41.433Z,16.57
2018-12-16T20:14:08.902Z,15.40
2018-12-16T20:16:36.358Z,16.57
2018-12-16T20:19:03.801Z,15.13
2018-12-16T20:21:31.258Z,16.17
2018-12-16T20:23:58.740Z,16.13
2018-12-16T20:26:26.165Z,15.93
2018-12-16T20:28:53.638Z,17.10
2018-12-16T20:31:21.073Z,15.90
2018-12-16T20:33:48.534Z,15.53
2018-12-16T20:36:15.994Z,15.43
2018-12-16T20:38:43.449Z,17.27
2018-12-16T20:41:10.924Z,16.30
2018-12-16T20:43:38.387Z,15.37
2018-12-16T20:46:05.847Z,15.43
2018-12-16T20:48:33.350Z,14.87
2018-12-16T20:51:00.781Z,15.03
2018-12-16T20:53:28.247Z,15.30
2018-12-16T20:55:55.800Z,13.70
2018-12-16T20:58:23.228Z,14.03
2018-12-16T21:00:50.766Z,14.70
2018-12-16T21:03:18.160Z,14.37
2018-12-16T21:05:45.625Z,14.33
2018-12-16T21:08:13.055Z,14.63
2018-12-16T21:10:40.620Z,13.17
2018-12-16T21:13:26.275Z,14.20
2018-12-16T21:16:11.689Z,14.13
2018-12-16T21:18:39.117Z,13.03
2018-12-16T21:21:06.584Z,13.83
2018-12-16T21:23:33.985Z,13.67
2018-12-16T21:26:01.448Z,12.80
2018-12-16T21:28:28.882Z,13.27
2018-12-16T21:30:56.351Z,12.97
2018-12-16T21:33:23.758Z,12.90
2018-12-16T21:35:51.247Z,11.53
2018-12-16T21:38:18.724Z,12.40
2018-12-16T21:40:46.175Z,12.97
2018-12-16T21:43:13.598Z,12.83
2018-12-16T21:45:41.067Z,11.70
2018-12-16T21:48:08.610Z,11.30
2018-12-16T21:50:36.005Z,9.97
2018-12-16T21:53:03.434Z,9.63
2018-12-16T21:55:30.916Z,10.13
2018-12-16T21:57:58.347Z,11.93
2018-12-16T22:00:25.778Z,11.10
2018-12-16T22:02:53.263Z,12.47
2018-12-16T22:05:20.730Z,11.20
2018-12-16T22:07:48.183Z,11.50
2018-12-16T22:10:15.666Z,12.30
2018-12-16T22:12:43.092Z,11.13
2018-12-16T22:15:10.585Z,12.37
2018-12-16T22:17:38.006Z,13.37
2018-12-16T22:20:05.480Z,11.00
2018-12-16T22:22:32.904Z,10.60
2018-12-16T22:25:00.356Z,11.40
2018-12-16T22:27:27.771Z,11.60
2018-12-16T22:29:55.272Z,10.43
2018-12-16T22:32:22.725Z,10.07
2018-12-16T22:34:50.184Z,10.30
2018-12-16T22:37:17.672Z,11.07
2018-12-16T22:39:45.101Z,10.73
2018-12-16T22:42:12.681Z,9.37
2018-12-16T22:44:40.131Z,10.03
2018-12-16T22:47:07.634Z,11.67
2018-12-16T22:49:35.047Z,10.67
2018-12-16T22:52:02.557Z,11.70
2018-12-16T22:54:29.935Z,10.07
2018-12-16T22:56:57.350Z,9.90
2018-12-16T22:59:24.818Z,10.90
2018-12-16T23:01:52.324Z,10.00
2018-12-16T23:04:19.743Z,10.57
2018-12-16T23:06:47.185Z,10.10
2018-12-16T23:09:14.596Z,11.20
2018-12-16T23:11:42.063Z,11.40
2018-12-16T23:14:09.526Z,11.67
2018-12-16T23:16:36.934Z,12.07
2018-12-16T23:19:04.379Z,13.67
2018-12-16T23:21:31.810Z,13.17
2018-12-16T23:23:59.282Z,11.03
2018-12-16T23:26:26.693Z,13.43
2018-12-16T23:28:54.108Z,12.93
2018-12-16T23:31:21.544Z,12.80
2018-12-16T23:33:49.011Z,13.30
2018-12-16T23:36:16.475Z,11.63
2018-12-16T23:38:43.888Z,12.80
2018-12-16T23:41:11.339Z,10.97
2018-12-16T23:43:38.747Z,12.17
2018-12-16T23:46:06.186Z,12.77
2018-12-16T23:48:33.585Z,11.60
2018-12-16T23:51:01.035Z,12.27
2018-12-16T23:53:28.505Z,11.43
2018-12-16T23:55:55.921Z,11.60
2018-12-16T23:58:23.335Z,10.50
